Stratford, California
Current Conditions -  °F | °C
As of 4:56 PM on Friday 28 Nov 2014 (Local Time) from KNLC Reporting Station
Haze Haze  
Wind Chill: 67°   Ceiling: Unl
Heat Index: 67°   Visibility: 5mi
Dew Point: 48°   Wind: 0mph
Humidity: 51%   Direction: NA
Pressure: 29.88"   Gusts: NA
Location:  36.19°N, 119.82°W
Report Text: KNLC 290056Z 00000KT 5SM HZ CLR 19/09 A2988 RMK AO2 SLP120 RH/50 T01940089 $
Loading
Personal Weather Stations






























Interactive Weather Map New forecast layout! Learn more

10-Day Weather Forecast

Advertisements
Track Severe Weather on mobile